sensor_id;sensor_type;location;lat;lon;timestamp;temperature;humidity
27870;DHT22;15225;50.730;4.244;2024-01-16T18:13:13;0.40;1.00
27870;DHT22;15225;50.730;4.244;2024-01-16T18:15:40;0.30;1.00
27870;DHT22;15225;50.730;4.244;2024-01-16T18:18:06;0.80;1.00
27870;DHT22;15225;50.730;4.244;2024-01-16T18:20:38;1.20;1.00
27870;DHT22;15225;50.730;4.244;2024-01-16T18:23:03;1.80;99.90
27870;DHT22;15225;50.730;4.244;2024-01-16T18:25:32;2.20;1.00
27870;DHT22;15225;50.730;4.244;2024-01-16T18:27:58;2.60;99.90
27870;DHT22;15225;50.730;4.244;2024-01-16T18:30:24;2.70;99.90
27870;DHT22;15225;50.730;4.244;2024-01-16T18:32:52;2.90;99.90
27870;DHT22;15225;50.730;4.244;2024-01-16T18:35:22;3.00;99.90
27870;DHT22;15225;50.730;4.244;2024-01-16T18:37:48;3.10;1.00
27870;DHT22;15225;50.730;4.244;2024-01-16T18:40:14;3.20;99.90
27870;DHT22;15225;50.730;4.244;2024-01-16T18:42:45;3.20;99.90
27870;DHT22;15225;50.730;4.244;2024-01-16T18:45:11;3.10;99.90
27870;DHT22;15225;50.730;4.244;2024-01-16T18:47:40;3.20;1.00
27870;DHT22;15225;50.730;4.244;2024-01-16T18:50:08;3.10;96.90
27870;DHT22;15225;50.730;4.244;2024-01-16T18:52:38;3.20;1.00
27870;DHT22;15225;50.730;4.244;2024-01-16T18:55:09;3.10;25.90
27870;DHT22;15225;50.730;4.244;2024-01-16T18:57:38;3.10;11.10
27870;DHT22;15225;50.730;4.244;2024-01-16T19:00:07;3.10;1.00
27870;DHT22;15225;50.730;4.244;2024-01-16T19:02:42;3.20;1.00
27870;DHT22;15225;50.730;4.244;2024-01-16T19:05:12;3.10;1.00
27870;DHT22;15225;50.730;4.244;2024-01-16T19:07:42;3.10;1.00
27870;DHT22;15225;50.730;4.244;2024-01-16T19:10:09;3.10;1.00
27870;DHT22;15225;50.730;4.244;2024-01-16T19:12:40;3.10;1.00
27870;DHT22;15225;50.730;4.244;2024-01-16T19:15:07;3.10;1.00
27870;DHT22;15225;50.730;4.244;2024-01-16T19:17:33;3.00;1.00
27870;DHT22;15225;50.730;4.244;2024-01-16T19:19:59;3.10;1.00
27870;DHT22;15225;50.730;4.244;2024-01-16T19:22:29;3.00;1.00
27870;DHT22;15225;50.730;4.244;2024-01-16T19:24:54;2.90;1.00
27870;DHT22;15225;50.730;4.244;2024-01-16T19:27:20;3.00;1.00
27870;DHT22;15225;50.730;4.244;2024-01-16T19:29:46;2.90;1.00
27870;DHT22;15225;50.730;4.244;2024-01-16T19:32:12;2.90;1.00
27870;DHT22;15225;50.730;4.244;2024-01-16T19:34:38;2.90;1.00
27870;DHT22;15225;50.730;4.244;2024-01-16T19:37:03;2.70;99.90
27870;DHT22;15225;50.730;4.244;2024-01-16T19:39:29;2.70;99.90
27870;DHT22;15225;50.730;4.244;2024-01-16T19:41:58;2.60;1.00
27870;DHT22;15225;50.730;4.244;2024-01-16T19:44:24;2.60;1.00
27870;DHT22;15225;50.730;4.244;2024-01-16T19:46:49;2.70;1.00
27870;DHT22;15225;50.730;4.244;2024-01-16T19:49:15;3.00;39.60
27870;DHT22;15225;50.730;4.244;2024-01-16T19:51:42;2.90;50.70
27870;DHT22;15225;50.730;4.244;2024-01-16T19:54:09;3.00;1.00
27870;DHT22;15225;50.730;4.244;2024-01-16T19:56:36;2.90;32.00
27870;DHT22;15225;50.730;4.244;2024-01-16T19:59:04;2.90;1.00
27870;DHT22;15225;50.730;4.244;2024-01-16T20:01:31;2.90;1.00
27870;DHT22;15225;50.730;4.244;2024-01-16T20:04:00;2.80;1.00
27870;DHT22;15225;50.730;4.244;2024-01-16T20:06:30;2.70;99.90
27870;DHT22;15225;50.730;4.244;2024-01-16T20:08:56;2.50;1.00
27870;DHT22;15225;50.730;4.244;2024-01-16T20:11:31;2.60;1.00
27870;DHT22;15225;50.730;4.244;2024-01-16T20:13:58;2.60;1.00
27870;DHT22;15225;50.730;4.244;2024-01-16T20:16:25;2.60;99.90
27870;DHT22;15225;50.730;4.244;2024-01-16T20:18:52;2.60;99.90
27870;DHT22;15225;50.730;4.244;2024-01-16T20:21:21;2.60;99.90
27870;DHT22;15225;50.730;4.244;2024-01-16T20:23:48;2.60;99.90
27870;DHT22;15225;50.730;4.244;2024-01-16T20:26:15;2.50;1.00
27870;DHT22;15225;50.730;4.244;2024-01-16T20:28:43;2.60;99.90
27870;DHT22;15225;50.730;4.244;2024-01-16T20:31:10;2.60;99.90
27870;DHT22;15225;50.730;4.244;2024-01-16T20:33:36;2.50;99.90
27870;DHT22;15225;50.730;4.244;2024-01-16T20:36:05;2.40;1.00
27870;DHT22;15225;50.730;4.244;2024-01-16T20:38:31;2.40;1.00
27870;DHT22;15225;50.730;4.244;2024-01-16T20:40:58;2.40;99.90
27870;DHT22;15225;50.730;4.244;2024-01-16T20:43:23;2.40;1.00
27870;DHT22;15225;50.730;4.244;2024-01-16T20:45:49;2.60;99.90
27870;DHT22;15225;50.730;4.244;2024-01-16T20:48:15;2.70;1.00
27870;DHT22;15225;50.730;4.244;2024-01-16T20:50:40;2.70;1.00
27870;DHT22;15225;50.730;4.244;2024-01-16T20:53:06;2.60;1.00
27870;DHT22;15225;50.730;4.244;2024-01-16T20:55:32;2.40;1.00
27870;DHT22;15225;50.730;4.244;2024-01-16T20:58:00;2.30;99.90
27870;DHT22;15225;50.730;4.244;2024-01-16T21:00:26;2.40;1.00
27870;DHT22;15225;50.730;4.244;2024-01-16T21:02:54;2.40;52.50
27870;DHT22;15225;50.730;4.244;2024-01-16T21:05:22;2.40;1.00
27870;DHT22;15225;50.730;4.244;2024-01-16T21:07:47;2.30;1.00
27870;DHT22;15225;50.730;4.244;2024-01-16T21:10:13;2.30;1.00
27870;DHT22;15225;50.730;4.244;2024-01-16T21:12:41;2.20;2.60
27870;DHT22;15225;50.730;4.244;2024-01-16T21:15:07;2.20;91.20
27870;DHT22;15225;50.730;4.244;2024-01-16T21:17:33;2.30;1.00
27870;DHT22;15225;50.730;4.244;2024-01-16T21:19:59;2.30;1.00
27870;DHT22;15225;50.730;4.244;2024-01-16T21:22:24;2.20;1.00
27870;DHT22;15225;50.730;4.244;2024-01-16T21:24:50;2.10;1.00
27870;DHT22;15225;50.730;4.244;2024-01-16T21:27:16;2.20;1.00
27870;DHT22;15225;50.730;4.244;2024-01-16T21:29:42;2.10;1.00
27870;DHT22;15225;50.730;4.244;2024-01-16T21:32:09;2.10;45.90
27870;DHT22;15225;50.730;4.244;2024-01-16T21:34:36;2.20;1.00
27870;DHT22;15225;50.730;4.244;2024-01-16T21:37:02;2.10;1.00
27870;DHT22;15225;50.730;4.244;2024-01-16T21:39:28;2.10;1.00
27870;DHT22;15225;50.730;4.244;2024-01-16T21:41:58;2.20;1.00
27870;DHT22;15225;50.730;4.244;2024-01-16T21:44:24;2.30;99.90
27870;DHT22;15225;50.730;4.244;2024-01-16T21:46:50;2.20;1.00
27870;DHT22;15225;50.730;4.244;2024-01-16T21:49:16;1.90;27.00
27870;DHT22;15225;50.730;4.244;2024-01-16T21:51:42;1.80;1.00
27870;DHT22;15225;50.730;4.244;2024-01-16T21:54:10;2.20;1.00
27870;DHT22;15225;50.730;4.244;2024-01-16T21:56:37;2.30;99.90
27870;DHT22;15225;50.730;4.244;2024-01-16T21:59:04;2.20;99.90
27870;DHT22;15225;50.730;4.244;2024-01-16T22:01:30;2.20;99.90
27870;DHT22;15225;50.730;4.244;2024-01-16T22:03:56;2.10;99.90
27870;DHT22;15225;50.730;4.244;2024-01-16T22:06:22;2.10;99.90
27870;DHT22;15225;50.730;4.244;2024-01-16T22:08:52;2.00;1.00
27870;DHT22;15225;50.730;4.244;2024-01-16T22:11:19;2.00;1.00
27870;DHT22;15225;50.730;4.244;2024-01-16T22:13:46;2.00;1.00
